Time;durP1;ratioP1;P1;durP2;ratioP2;P2;SDS_P1;SDS_P2;PMS_P1;PMS_P2;Temp;Humidity;BMP_temperature;BMP_pressure;BME280_temperature;BME280_humidity;BME280_pressure;Samples;Min_cycle;Max_cycle;Signal;HPM_P1;HPM_P2
2021/12/21 00:01:17;;;;;;;23.13;8.77;;;-7.70;99.90;;;;;;5015576;28;20172;-78
2021/12/21 00:03:42;;;;;;;21.03;9.20;;;-7.30;99.90;;;;;;5014911;28;20199;-79
2021/12/21 00:06:08;;;;;;;19.77;9.33;;;-7.10;99.90;;;;;;5016134;28;20409;-79
2021/12/21 00:08:35;;;;;;;20.17;9.50;;;-5.00;99.90;;;;;;5017689;28;20234;-79
2021/12/21 00:11:01;;;;;;;15.13;9.67;;;-5.50;99.90;;;;;;5018810;28;20202;-79
2021/12/21 00:16:10;;;;;;;20.33;8.63;;;-7.50;99.90;;;;;;5018698;28;20172;-79
2021/12/21 00:18:47;;;;;;;20.10;9.57;;;-7.70;99.90;;;;;;5018468;28;20440;-79
2021/12/21 00:21:24;;;;;;;16.80;8.00;;;-7.40;99.90;;;;;;5017516;28;20470;-78
2021/12/21 00:23:56;;;;;;;24.07;10.20;;;-7.80;99.90;;;;;;5018597;28;20464;-79
2021/12/21 00:26:22;;;;;;;13.20;7.83;;;-6.30;99.90;;;;;;5018501;28;20392;-79
2021/12/21 00:28:58;;;;;;;15.37;7.97;;;-7.70;99.90;;;;;;5018404;28;20419;-78
2021/12/21 00:31:29;;;;;;;15.90;9.10;;;-7.60;99.90;;;;;;5018146;28;20202;-79
2021/12/21 00:33:55;;;;;;;24.07;9.00;;;-4.90;99.90;;;;;;5018321;28;20777;-79
2021/12/21 00:36:24;;;;;;;23.83;9.63;;;-3.90;99.90;;;;;;5018381;28;20491;-79
2021/12/21 00:38:52;;;;;;;18.93;8.47;;;-6.90;99.90;;;;;;5018269;28;20183;-78
2021/12/21 00:41:18;;;;;;;21.67;8.33;;;-4.90;99.90;;;;;;5018006;28;20498;-79
2021/12/21 00:43:44;;;;;;;16.83;10.20;;;-5.10;99.90;;;;;;5017054;28;20455;-79
2021/12/21 00:46:11;;;;;;;21.67;9.50;;;-7.60;99.90;;;;;;5017823;28;20665;-79
2021/12/21 00:48:40;;;;;;;21.20;9.00;;;-7.80;99.90;;;;;;5017028;28;20852;-79
2021/12/21 00:51:07;;;;;;;19.47;8.70;;;-7.90;99.90;;;;;;5017885;28;20452;-78
2021/12/21 00:53:36;;;;;;;14.53;8.33;;;-6.40;99.90;;;;;;5016868;28;20508;-79
2021/12/21 00:56:03;;;;;;;15.60;7.93;;;-7.60;99.90;;;;;;5017889;28;20441;-78
2021/12/21 00:58:29;;;;;;;24.80;9.80;;;-7.40;99.90;;;;;;5018006;28;20401;-78
2021/12/21 01:00:56;;;;;;;14.00;7.23;;;-7.70;99.90;;;;;;5017567;28;20797;-79
2021/12/21 01:03:22;;;;;;;18.50;9.97;;;-5.90;99.90;;;;;;5017706;28;20205;-79
2021/12/21 01:06:06;;;;;;;23.30;8.87;;;-7.50;99.90;;;;;;5017686;28;20404;-78
2021/12/21 01:08:43;;;;;;;19.07;9.20;;;-7.80;99.90;;;;;;5017715;28;20301;-78
2021/12/21 01:11:15;;;;;;;21.60;9.00;;;-5.20;99.90;;;;;;5017628;28;20416;-78
2021/12/21 01:16:33;;;;;;;27.43;9.73;;;-5.60;99.90;;;;;;5016968;28;20404;-78
2021/12/21 01:19:22;;;;;;;21.10;9.67;;;-6.90;99.90;;;;;;5033006;28;20447;-78
2021/12/21 01:27:23;;;;;;;19.00;9.30;;;-6.00;99.90;;;;;;5017411;28;20424;-79
2021/12/21 01:30:56;;;;;;;17.30;9.60;;;-8.00;99.90;;;;;;5032391;28;20420;-78
2021/12/21 01:35:47;;;;;;;20.63;10.57;;;-8.20;99.90;;;;;;5017422;28;20427;-82
2021/12/21 01:38:30;;;;;;;22.67;10.63;;;-8.50;99.90;;;;;;5017608;28;20508;-79
2021/12/21 01:41:10;;;;;;;20.73;10.33;;;-8.30;99.90;;;;;;5016978;28;20447;-79
2021/12/21 01:43:43;;;;;;;16.73;9.53;;;-8.50;99.90;;;;;;5032225;28;20550;-78
2021/12/21 01:51:38;;;;;;;23.90;9.93;;;-8.20;99.90;;;;;;5016725;28;20424;-78
2021/12/21 01:54:04;;;;;;;22.30;11.93;;;-8.20;99.90;;;;;;5016920;28;20429;-78
2021/12/21 01:56:30;;;;;;;20.10;8.03;;;-5.50;99.90;;;;;;5015715;28;20203;-79
2021/12/21 01:58:56;;;;;;;29.73;11.87;;;-6.40;99.90;;;;;;5015386;28;20313;-78
2021/12/21 02:01:24;;;;;;;20.67;8.50;;;-7.70;99.90;;;;;;5016739;28;20431;-78
2021/12/21 02:03:50;;;;;;;21.53;10.50;;;-7.80;99.90;;;;;;5015732;28;20478;-79
2021/12/21 02:06:19;;;;;;;28.10;9.70;;;-7.80;99.90;;;;;;5016839;28;20403;-78
2021/12/21 02:08:46;;;;;;;13.00;8.27;;;-5.90;99.90;;;;;;5016707;28;20396;-78
2021/12/21 02:11:13;;;;;;;15.93;9.47;;;-7.70;99.90;;;;;;5015637;28;20408;-79
2021/12/21 02:13:44;;;;;;;15.67;9.47;;;-7.80;99.90;;;;;;5016222;28;20739;-79
2021/12/21 02:16:09;;;;;;;19.93;9.67;;;-7.80;99.90;;;;;;5016598;28;20490;-78
2021/12/21 02:21:44;;;;;;;20.53;10.60;;;-5.70;99.90;;;;;;5014337;28;20177;-79
2021/12/21 02:24:15;;;;;;;24.17;10.23;;;-7.20;99.90;;;;;;5016103;28;20585;-78
2021/12/21 02:26:50;;;;;;;22.83;9.67;;;-6.70;99.90;;;;;;5016382;28;20439;-78
2021/12/21 02:29:18;;;;;;;21.07;9.27;;;-8.30;99.90;;;;;;5031085;28;20407;-78
2021/12/21 02:31:48;;;;;;;17.17;9.90;;;-8.20;99.90;;;;;;5016388;28;20707;-78
2021/12/21 02:34:15;;;;;;;20.97;9.97;;;-8.20;99.90;;;;;;5016222;28;20891;-78
2021/12/21 02:36:43;;;;;;;19.77;9.10;;;-8.40;99.90;;;;;;5015225;28;20431;-78
2021/12/21 02:39:09;;;;;;;28.63;12.63;;;-8.60;99.90;;;;;;5014993;28;20407;-78
2021/12/21 02:41:37;;;;;;;19.23;9.40;;;-8.40;99.90;;;;;;5015155;28;20432;-78
2021/12/21 02:44:04;;;;;;;24.50;10.40;;;-8.60;99.90;;;;;;5031614;28;20454;-78
2021/12/21 02:46:30;;;;;;;27.03;12.83;;;-8.80;99.90;;;;;;5015223;28;20403;-79
2021/12/21 02:48:56;;;;;;;14.07;9.23;;;-8.70;99.90;;;;;;5031448;28;20700;-79
2021/12/21 02:51:23;;;;;;;23.23;10.10;;;-8.00;99.90;;;;;;5016081;28;20598;-78
2021/12/21 02:53:49;;;;;;;26.43;10.80;;;-6.60;99.90;;;;;;5016281;28;20477;-79
2021/12/21 02:56:15;;;;;;;23.93;9.77;;;-8.50;99.90;;;;;;5014877;28;20506;-78
2021/12/21 02:58:41;;;;;;;20.70;11.43;;;-8.40;99.90;;;;;;5016039;28;20772;-78
2021/12/21 03:01:09;;;;;;;41.27;10.60;;;-8.50;99.90;;;;;;5016052;28;20174;-79
2021/12/21 03:03:35;;;;;;;18.53;9.77;;;-8.40;99.90;;;;;;5014588;28;20457;-79
2021/12/21 03:06:06;;;;;;;20.93;9.67;;;-8.30;99.90;;;;;;5016044;28;20411;-80
2021/12/21 03:08:41;;;;;;;20.27;10.37;;;-6.70;99.90;;;;;;5014692;28;20174;-79
2021/12/21 03:13:54;;;;;;;23.03;10.80;;;-8.20;99.90;;;;;;5016005;28;20415;-79
2021/12/21 03:16:20;;;;;;;26.00;12.60;;;-5.50;99.90;;;;;;5015112;28;20410;-77
2021/12/21 03:18:46;;;;;;;25.37;12.57;;;-6.10;99.90;;;;;;5015800;28;20839;-78
2021/12/21 03:21:12;;;;;;;29.23;12.70;;;-7.90;99.90;;;;;;5014908;28;20581;-79
2021/12/21 03:23:40;;;;;;;20.77;10.60;;;-8.00;99.90;;;;;;5015510;28;20217;-78
2021/12/21 03:26:07;;;;;;;21.53;11.50;;;-8.10;99.90;;;;;;5014445;28;20874;-79
2021/12/21 03:28:33;;;;;;;24.57;11.40;;;-8.50;99.90;;;;;;5015555;28;20438;-79
2021/12/21 03:30:58;;;;;;;22.87;10.90;;;-8.40;99.90;;;;;;5015814;28;20399;-79
2021/12/21 03:33:24;;;;;;;19.00;11.70;;;-8.40;99.90;;;;;;5014607;28;20418;-78
2021/12/21 03:35:50;;;;;;;21.87;9.87;;;-6.50;99.90;;;;;;5031231;28;20251;-78
2021/12/21 03:38:16;;;;;;;17.07;10.07;;;-7.00;99.90;;;;;;5015577;28;20219;-78
2021/12/21 03:40:43;;;;;;;18.77;10.70;;;-8.20;99.90;;;;;;5017928;28;20404;-78
2021/12/21 03:43:10;;;;;;;15.47;10.00;;;-8.40;99.90;;;;;;5019256;28;20252;-78
2021/12/21 03:45:42;;;;;;;19.47;10.43;;;-8.70;99.90;;;;;;5019226;28;20407;-78
2021/12/21 03:48:12;;;;;;;21.93;10.20;;;-5.80;99.90;;;;;;5018328;28;20415;-78
2021/12/21 03:50:38;;;;;;;21.47;10.50;;;-7.30;99.90;;;;;;5034504;28;20423;-78
2021/12/21 03:53:04;;;;;;;25.57;10.43;;;-7.10;99.90;;;;;;5019452;28;20426;-78
2021/12/21 03:55:30;;;;;;;19.60;10.37;;;-8.50;99.90;;;;;;5018919;28;20192;-78
2021/12/21 03:57:55;;;;;;;19.40;12.00;;;-5.70;99.90;;;;;;5019145;28;20244;-78
2021/12/21 04:00:23;;;;;;;20.43;10.03;;;-6.70;99.90;;;;;;5019115;28;20470;-81
2021/12/21 04:02:49;;;;;;;26.67;12.93;;;-7.30;99.90;;;;;;5019008;28;20165;-80
2021/12/21 04:05:15;;;;;;;20.00;11.43;;;-7.00;99.90;;;;;;5018827;28;20450;-78
2021/12/21 04:07:41;;;;;;;12.93;8.97;;;-8.20;99.90;;;;;;5018853;28;20395;-78
2021/12/21 04:10:07;;;;;;;22.10;12.93;;;-8.80;99.90;;;;;;5018502;28;20395;-78
2021/12/21 04:12:34;;;;;;;22.43;11.13;;;-8.40;99.90;;;;;;5018872;28;20162;-78
2021/12/21 04:15:02;;;;;;;30.03;12.20;;;-8.40;99.90;;;;;;5034170;28;20402;-78
2021/12/21 04:17:29;;;;;;;21.23;14.27;;;-8.50;99.90;;;;;;5018787;28;20407;-78
2021/12/21 04:19:55;;;;;;;27.87;13.30;;;-8.60;99.90;;;;;;5018624;28;20486;-78
2021/12/21 04:22:21;;;;;;;26.57;12.23;;;-8.40;99.90;;;;;;5018467;28;20426;-79
2021/12/21 04:24:46;;;;;;;22.53;11.60;;;-6.10;99.90;;;;;;5017065;28;20925;-78
2021/12/21 04:27:12;;;;;;;23.27;10.90;;;-8.70;99.90;;;;;;5018656;28;20162;-79
2021/12/21 04:29:38;;;;;;;25.07;12.97;;;-6.60;99.90;;;;;;5018411;28;20597;-78
2021/12/21 04:32:05;;;;;;;17.23;11.10;;;-8.70;99.90;;;;;;5018552;28;20177;-79
2021/12/21 04:34:31;;;;;;;29.03;12.67;;;-8.40;99.90;;;;;;5033570;28;20431;-78
2021/12/21 04:36:57;;;;;;;30.33;13.80;;;-6.20;99.90;;;;;;5017411;28;20415;-78
2021/12/21 04:39:45;;;;;;;16.87;10.77;;;-6.60;99.90;;;;;;5018136;28;20487;-78
2021/12/21 04:42:11;;;;;;;17.93;10.70;;;-8.70;99.90;;;;;;5033820;28;20737;-78
2021/12/21 04:44:36;;;;;;;25.00;11.83;;;-9.00;99.90;;;;;;5017153;28;20458;-78
2021/12/21 04:47:03;;;;;;;24.90;10.23;;;-8.50;99.90;;;;;;5017024;28;20177;-78
2021/12/21 04:49:29;;;;;;;25.07;12.77;;;-8.60;99.90;;;;;;5018076;28;20162;-79
2021/12/21 04:51:54;;;;;;;20.50;11.97;;;-8.40;99.90;;;;;;5032483;28;20431;-79
2021/12/21 04:54:20;;;;;;;30.67;12.40;;;-5.90;99.90;;;;;;5033578;28;20489;-78
2021/12/21 04:56:46;;;;;;;23.23;10.80;;;-6.90;99.90;;;;;;5016869;28;20182;-78
2021/12/21 04:59:12;;;;;;;26.03;12.30;;;-8.60;99.90;;;;;;5017886;28;20173;-79
2021/12/21 05:01:38;;;;;;;23.63;11.37;;;-8.70;99.90;;;;;;5017766;28;20197;-79
2021/12/21 05:39:22;;;;;;;20.57;12.40;;;-8.70;99.90;;;;;;5073130;28;20998;-80
2021/12/21 05:41:52;;;;;;;20.53;11.13;;;-8.00;99.90;;;;;;5071915;28;20403;-79
2021/12/21 05:44:20;;;;;;;18.00;11.40;;;-8.40;99.90;;;;;;5073083;28;20841;-79
2021/12/21 05:46:47;;;;;;;21.27;10.97;;;-8.90;99.90;;;;;;5071865;28;20416;-79
2021/12/21 05:49:13;;;;;;;20.57;10.90;;;-8.80;99.90;;;;;;5072802;28;20416;-80
2021/12/21 06:26:16;;;;;;;19.03;11.57;;;-8.50;99.90;;;;;;5093207;28;20403;-79
2021/12/21 06:28:44;;;;;;;19.73;11.60;;;-7.20;99.90;;;;;;5091931;28;20914;-79
2021/12/21 06:31:10;;;;;;;23.17;11.87;;;-8.40;99.90;;;;;;5093162;28;20402;-79
2021/12/21 06:33:36;;;;;;;26.83;12.77;;;-8.00;99.90;;;;;;5092682;28;20404;-80
2021/12/21 08:01:50;;;;;;;29.07;13.60;;;-8.50;99.90;;;;;;5113154;27;20560;-76
2021/12/21 08:04:16;;;;;;;20.03;13.13;;;-6.00;99.90;;;;;;5113045;28;20431;-76
2021/12/21 08:06:45;;;;;;;23.73;13.27;;;-8.80;99.90;;;;;;5113462;28;20386;-77
2021/12/21 08:09:12;;;;;;;30.10;13.00;;;-8.70;99.90;;;;;;5111993;28;20391;-76
2021/12/21 09:10:25;;;;;;;27.23;13.13;;;-8.90;99.90;;;;;;5072717;28;20601;-77
2021/12/21 09:12:52;;;;;;;21.50;12.37;;;-6.80;99.90;;;;;;5071788;28;20398;-76
2021/12/21 09:15:19;;;;;;;21.97;12.33;;;-8.10;99.90;;;;;;5073016;28;20758;-76
2021/12/21 09:17:45;;;;;;;19.90;12.90;;;-7.00;99.90;;;;;;5076538;28;20890;-75
2021/12/21 09:20:13;;;;;;;25.27;16.07;;;-6.80;99.90;;;;;;5077505;28;20397;-75
2021/12/21 09:22:40;;;;;;;19.80;13.00;;;-8.50;99.90;;;;;;5071230;28;20723;-76
2021/12/21 09:25:07;;;;;;;26.97;15.70;;;-6.50;99.90;;;;;;5071178;28;20415;-77
2021/12/21 09:27:32;;;;;;;20.27;11.47;;;-8.50;99.90;;;;;;5070817;28;20412;-77
2021/12/21 09:29:58;;;;;;;15.23;11.60;;;-8.40;99.90;;;;;;5072075;28;20453;-77
2021/12/21 09:32:26;;;;;;;24.40;13.23;;;-8.50;99.90;;;;;;5070774;28;20176;-76
2021/12/21 09:34:52;;;;;;;20.73;12.63;;;-8.70;99.90;;;;;;5072018;28;20167;-75
2021/12/21 09:37:20;;;;;;;20.63;12.17;;;-8.50;99.90;;;;;;5071274;28;20513;-75
2021/12/21 09:39:53;;;;;;;17.50;12.87;;;-8.70;99.90;;;;;;5071289;28;20515;-75
2021/12/21 09:42:22;;;;;;;23.30;12.77;;;-8.70;99.90;;;;;;5071603;28;20407;-75
2021/12/21 09:44:49;;;;;;;19.03;12.17;;;-8.70;99.90;;;;;;5072321;28;20686;-76
2021/12/21 09:47:16;;;;;;;16.30;11.27;;;-7.00;99.90;;;;;;5071364;28;20490;-75
2021/12/21 09:49:43;;;;;;;18.03;12.43;;;-8.30;99.90;;;;;;5071772;28;20435;-75
2021/12/21 09:52:19;;;;;;;19.77;11.53;;;-8.20;99.90;;;;;;5071579;28;20401;-74
2021/12/21 09:54:46;;;;;;;28.60;12.67;;;-8.30;99.90;;;;;;5071342;28;20770;-74
2021/12/21 09:57:16;;;;;;;21.83;11.70;;;-8.20;99.90;;;;;;5070418;28;20419;-76
2021/12/21 09:59:42;;;;;;;21.60;13.07;;;-7.10;99.90;;;;;;5070931;28;20420;-75
2021/12/21 10:02:09;;;;;;;24.47;10.90;;;-6.20;99.90;;;;;;5070621;28;20404;-76
2021/12/21 10:04:48;;;;;;;20.33;12.03;;;-8.10;99.90;;;;;;5071874;28;20852;-77
2021/12/21 10:07:15;;;;;;;15.73;9.70;;;-8.00;99.90;;;;;;5071603;28;20762;-76
2021/12/21 10:09:43;;;;;;;12.40;10.37;;;-6.40;99.90;;;;;;5069481;28;21008;-79
2021/12/21 10:12:13;;;;;;;13.80;10.77;;;-4.80;99.90;;;;;;5069711;28;20479;-77
2021/12/21 10:14:40;;;;;;;15.43;9.77;;;-7.60;99.90;;;;;;5071536;28;20417;-80
2021/12/21 10:17:08;;;;;;;15.87;10.50;;;-7.40;99.90;;;;;;5070519;28;20412;-78
2021/12/21 10:19:35;;;;;;;19.43;10.87;;;-7.50;99.90;;;;;;5069917;28;20412;-78
2021/12/21 10:22:12;;;;;;;17.83;11.00;;;-7.50;99.90;;;;;;5056515;28;20500;-77
2021/12/21 10:24:52;;;;;;;26.57;11.70;;;-7.40;99.90;;;;;;5057902;28;20416;-76
2021/12/21 10:27:22;;;;;;;13.97;9.17;;;-7.10;99.90;;;;;;5057815;28;20481;-77
2021/12/21 10:29:54;;;;;;;11.87;8.27;;;-7.40;99.90;;;;;;5056948;28;20457;-78
2021/12/21 10:32:31;;;;;;;12.03;8.70;;;-7.30;99.90;;;;;;5057845;28;20394;-77
2021/12/21 10:35:10;;;;;;;12.03;8.10;;;-7.10;99.90;;;;;;5056802;28;20444;-77
2021/12/21 10:37:39;;;;;;;14.37;8.13;;;-7.10;99.90;;;;;;5057610;28;20449;-76
2021/12/21 10:40:12;;;;;;;14.33;7.93;;;-5.80;99.90;;;;;;5056594;28;20425;-76
2021/12/21 10:42:54;;;;;;;15.30;11.10;;;-7.00;99.90;;;;;;5056855;28;20424;-78
2021/12/21 10:45:41;;;;;;;13.60;10.20;;;-6.70;99.90;;;;;;5056170;28;20422;-77
2021/12/21 10:48:15;;;;;;;16.47;10.40;;;-6.80;99.90;;;;;;5057439;28;20499;-77
2021/12/21 10:50:43;;;;;;;11.87;7.77;;;-6.80;99.90;;;;;;5057736;28;20833;-77
2021/12/21 10:53:18;;;;;;;14.80;8.13;;;-6.80;99.90;;;;;;5057363;28;20398;-77
2021/12/21 10:55:45;;;;;;;16.27;7.43;;;-6.60;99.90;;;;;;5056508;28;20501;-77
2021/12/21 10:58:16;;;;;;;13.00;6.33;;;-4.50;99.90;;;;;;5055679;28;20439;-77
2021/12/21 11:00:54;;;;;;;8.70;5.73;;;-6.60;99.90;;;;;;5057390;28;20410;-77
2021/12/21 11:03:31;;;;;;;9.50;5.90;;;-6.80;99.90;;;;;;5057356;28;20457;-76
2021/12/21 11:06:18;;;;;;;10.73;6.13;;;-5.60;99.90;;;;;;5057115;28;20409;-77
2021/12/21 11:08:48;;;;;;;25.60;8.23;;;-7.20;99.90;;;;;;5056122;28;20553;-77
2021/12/21 11:11:32;;;;;;;16.20;8.00;;;-6.00;99.90;;;;;;5057098;28;20406;-75
2021/12/21 11:14:09;;;;;;;8.43;5.47;;;-7.40;99.90;;;;;;5055578;28;20403;-77
2021/12/21 11:16:44;;;;;;;14.33;6.07;;;-7.30;99.90;;;;;;5057093;28;20441;-75
2021/12/21 11:19:12;;;;;;;7.57;5.07;;;-7.80;99.90;;;;;;5054827;28;20446;-74
2021/12/21 11:21:38;;;;;;;11.33;5.30;;;-5.90;99.90;;;;;;5056293;28;20419;-74
2021/12/21 11:24:09;;;;;;;7.20;4.33;;;-7.90;99.90;;;;;;5056088;28;20412;-80
2021/12/21 11:26:36;;;;;;;13.07;4.73;;;-7.50;99.90;;;;;;5056792;28;20518;-78
2021/12/21 11:29:06;;;;;;;6.07;5.00;;;-7.60;99.90;;;;;;5056600;28;20441;-75
2021/12/21 11:31:40;;;;;;;10.73;4.43;;;-7.90;99.90;;;;;;5056401;28;20432;-74
2021/12/21 11:34:12;;;;;;;6.37;4.83;;;-7.70;99.90;;;;;;5050063;28;20403;-75
2021/12/21 11:39:23;;;;;;;5.23;4.83;;;-7.80;99.90;;;;;;5045610;28;20715;-72
2021/12/21 11:41:50;;;;;;;6.20;4.13;;;-7.90;99.90;;;;;;5056288;28;20462;-74
2021/12/21 11:44:22;;;;;;;4.53;3.60;;;-8.40;99.90;;;;;;5055345;28;20616;-73
2021/12/21 11:47:01;;;;;;;7.17;4.43;;;-8.20;99.90;;;;;;5056539;28;20899;-79
2021/12/21 11:49:50;;;;;;;6.03;4.23;;;-8.30;99.90;;;;;;5056255;28;20456;-74
2021/12/21 11:52:24;;;;;;;6.60;3.80;;;-8.20;99.90;;;;;;5054743;28;20416;-74
2021/12/21 11:55:03;;;;;;;10.53;5.10;;;-8.30;99.90;;;;;;5056124;28;20397;-85
2021/12/21 11:57:39;;;;;;;12.43;5.70;;;-7.60;99.90;;;;;;5048722;28;20483;-74
2021/12/21 12:00:11;;;;;;;22.57;9.17;;;-6.20;99.90;;;;;;5052961;28;20926;-78
2021/12/21 12:02:38;;;;;;;14.13;9.27;;;-7.30;99.90;;;;;;5053654;28;20417;-75
2021/12/21 12:05:27;;;;;;;9.93;5.20;;;-8.60;99.90;;;;;;5045647;28;20429;-80
2021/12/21 12:08:07;;;;;;;11.03;4.33;;;-7.30;99.90;;;;;;5048604;28;20433;-80
2021/12/21 12:10:35;;;;;;;4.13;3.67;;;-7.20;99.90;;;;;;5047036;28;20534;-85
2021/12/21 12:13:13;;;;;;;6.03;3.10;;;-7.40;99.90;;;;;;5048961;28;20400;-83
2021/12/21 12:15:47;;;;;;;8.33;3.57;;;-7.40;99.90;;;;;;5055673;28;20507;-78
2021/12/21 12:18:22;;;;;;;11.97;3.87;;;-7.20;99.90;;;;;;5053982;28;20404;-78
2021/12/21 12:20:48;;;;;;;4.40;3.07;;;-6.00;99.90;;;;;;5036426;28;20588;-74
2021/12/21 12:23:16;;;;;;;8.80;3.53;;;-7.10;99.90;;;;;;5036194;28;20666;-72
2021/12/21 12:25:59;;;;;;;6.07;4.00;;;-7.30;99.90;;;;;;5036049;28;20397;-73
2021/12/21 12:28:34;;;;;;;6.10;3.30;;;-5.80;99.90;;;;;;5052397;28;20578;-77
2021/12/21 12:31:01;;;;;;;9.30;5.33;;;-5.90;99.90;;;;;;5051049;28;20496;-77
2021/12/21 12:33:40;;;;;;;9.03;3.47;;;-7.40;99.90;;;;;;5053739;28;20434;-74
2021/12/21 12:36:07;;;;;;;5.47;3.53;;;-7.30;99.90;;;;;;5050966;28;20825;-81
2021/12/21 12:38:43;;;;;;;7.97;4.47;;;-7.40;99.90;;;;;;5050465;28;20444;-72
2021/12/21 12:41:13;;;;;;;3.87;3.33;;;-7.30;99.90;;;;;;5054078;28;20454;-86
2021/12/21 12:43:44;;;;;;;7.27;4.20;;;-7.40;99.90;;;;;;5053512;28;20420;-82
2021/12/21 12:46:24;;;;;;;3.30;3.00;;;-5.90;99.90;;;;;;5055022;28;20455;-78
2021/12/21 12:48:49;;;;;;;5.67;5.03;;;-5.10;99.90;;;;;;5054457;28;20451;-88
2021/12/21 12:51:33;;;;;;;4.23;3.33;;;-7.40;99.90;;;;;;5054969;28;20404;-85
2021/12/21 12:53:59;;;;;;;5.57;4.30;;;-7.50;99.90;;;;;;5052620;28;20220;-84
2021/12/21 12:56:26;;;;;;;6.10;3.73;;;-7.40;99.90;;;;;;5054276;28;20409;-84
2021/12/21 12:58:54;;;;;;;12.40;4.43;;;-6.80;99.90;;;;;;5052764;28;20210;-83
2021/12/21 13:01:24;;;;;;;8.47;4.10;;;-7.50;99.90;;;;;;5053493;28;20459;-83
2021/12/21 13:03:52;;;;;;;5.13;4.50;;;-7.50;99.90;;;;;;5054422;28;20412;-85
2021/12/21 13:06:28;;;;;;;8.70;5.60;;;-7.60;99.90;;;;;;5046828;28;20483;-81
2021/12/21 13:08:55;;;;;;;9.63;4.70;;;-7.20;99.90;;;;;;5052925;28;20464;-81
2021/12/21 13:11:30;;;;;;;5.70;4.57;;;-7.60;99.90;;;;;;5053681;28;20716;-76
2021/12/21 13:14:00;;;;;;;8.17;4.87;;;-7.60;99.90;;;;;;5054224;28;20407;-80
2021/12/21 13:16:34;;;;;;;6.07;4.77;;;-7.70;99.90;;;;;;5054246;28;20413;-83
2021/12/21 13:19:08;;;;;;;8.00;4.80;;;-7.60;99.90;;;;;;5050212;28;20416;-78
2021/12/21 13:22:01;;;;;;;6.90;4.33;;;-7.50;99.90;;;;;;5053891;28;20405;-74
2021/12/21 13:24:35;;;;;;;4.93;3.87;;;-7.60;99.90;;;;;;5052386;28;20720;-73
2021/12/21 13:27:12;;;;;;;7.00;4.43;;;-7.40;99.90;;;;;;5052326;28;20451;-76
2021/12/21 13:29:44;;;;;;;4.57;4.17;;;-8.10;99.90;;;;;;5053771;28;20455;-82
2021/12/21 13:32:15;;;;;;;5.73;4.83;;;-7.70;99.90;;;;;;5054425;28;20401;-84
2021/12/21 13:34:46;;;;;;;7.83;3.60;;;-7.30;99.90;;;;;;5052164;28;20500;-84
2021/12/21 13:37:19;;;;;;;11.27;5.00;;;-7.20;99.90;;;;;;5054613;28;20431;-81
2021/12/21 13:39:53;;;;;;;5.40;3.77;;;-7.20;99.90;;;;;;5051957;28;20425;-80
2021/12/21 13:42:25;;;;;;;9.20;4.57;;;-7.20;99.90;;;;;;5054320;28;20753;-77
2021/12/21 13:44:59;;;;;;;9.00;4.80;;;-6.80;99.90;;;;;;5054442;28;20492;-80
2021/12/21 13:47:31;;;;;;;7.13;5.60;;;-6.90;99.90;;;;;;5053756;28;20415;-82
2021/12/21 13:50:23;;;;;;;6.10;3.70;;;-7.10;99.90;;;;;;5053911;28;20457;-77
2021/12/21 13:53:00;;;;;;;8.77;4.17;;;-7.00;99.90;;;;;;5052676;28;20444;-83
2021/12/21 13:55:38;;;;;;;6.13;3.40;;;-7.20;99.90;;;;;;5054238;28;20786;-73
2021/12/21 13:58:11;;;;;;;11.00;5.23;;;-6.90;99.90;;;;;;5050341;28;20498;-76
2021/12/21 14:00:44;;;;;;;8.63;4.50;;;-6.90;99.90;;;;;;5057002;28;20427;-81
2021/12/21 14:03:55;;;;;;;7.73;4.17;;;-6.10;99.90;;;;;;5053991;28;20729;-75
2021/12/21 14:06:10;;;;;;;7.03;3.67;;;-6.90;99.90;;;;;;5052149;28;20475;-74
2021/12/21 14:08:36;;;;;;;7.87;4.40;;;-6.70;99.90;;;;;;5056876;28;20495;-74
2021/12/21 14:11:04;;;;;;;7.43;4.80;;;-6.70;99.90;;;;;;5057929;28;20401;-76
2021/12/21 14:13:36;;;;;;;7.43;4.13;;;-6.80;99.90;;;;;;5057633;28;20412;-74
2021/12/21 14:16:14;;;;;;;7.60;4.47;;;-4.80;99.90;;;;;;5056292;28;20428;-74
2021/12/21 14:18:45;;;;;;;5.40;4.93;;;-6.70;99.90;;;;;;5056988;28;20458;-74
2021/12/21 14:21:22;;;;;;;6.27;4.37;;;-6.80;99.90;;;;;;5056154;28;20436;-80
2021/12/21 14:23:56;;;;;;;8.73;4.33;;;-7.00;99.90;;;;;;5057806;28;20404;-80
2021/12/21 14:26:24;;;;;;;7.87;4.23;;;-6.80;99.90;;;;;;5057323;28;20409;-85
2021/12/21 14:29:10;;;;;;;12.33;5.60;;;-6.90;99.90;;;;;;5051030;28;20459;-81
2021/12/21 14:31:54;;;;;;;8.00;6.27;;;-7.10;99.90;;;;;;5060176;28;20401;-84
2021/12/21 14:34:30;;;;;;;6.63;4.50;;;-7.00;99.90;;;;;;5061497;28;20413;-83
2021/12/21 14:36:57;;;;;;;9.23;5.43;;;-7.00;99.90;;;;;;5056198;28;20466;-80
2021/12/21 14:39:25;;;;;;;11.20;4.37;;;-7.00;99.90;;;;;;5056859;28;20433;-76
2021/12/21 14:41:55;;;;;;;8.60;5.43;;;-6.90;99.90;;;;;;5057023;28;20719;-82
2021/12/21 14:44:31;;;;;;;6.53;4.10;;;-6.70;99.90;;;;;;5063373;28;20494;-88
2021/12/21 14:47:09;;;;;;;7.27;4.53;;;-6.90;99.90;;;;;;5058628;28;20414;-80
2021/12/21 14:49:45;;;;;;;5.47;4.30;;;-5.00;99.90;;;;;;5059530;28;20543;-87
2021/12/21 14:52:18;;;;;;;10.30;5.53;;;-6.90;99.90;;;;;;5056076;28;20777;-90
2021/12/21 14:54:52;;;;;;;16.37;9.60;;;-7.00;99.90;;;;;;5058139;28;20448;-80
2021/12/21 14:57:28;;;;;;;21.83;11.67;;;-7.00;99.90;;;;;;5052803;28;20499;-84
2021/12/21 14:59:54;;;;;;;24.70;14.00;;;-5.70;99.90;;;;;;5052082;28;20446;-80
2021/12/21 15:02:48;;;;;;;21.27;12.67;;;-7.10;99.90;;;;;;5056338;28;20420;-84
2021/12/21 15:05:11;;;;;;;14.97;9.27;;;-7.00;99.90;;;;;;5061312;28;20491;-79
2021/12/21 15:07:39;;;;;;;16.47;8.80;;;-7.00;99.90;;;;;;5056561;28;20833;-82
2021/12/21 15:10:06;;;;;;;13.20;6.87;;;-7.10;99.90;;;;;;5056970;28;20471;-88
2021/12/21 15:12:33;;;;;;;12.50;5.97;;;-7.60;99.90;;;;;;5057224;28;20515;-89
2021/12/21 15:14:59;;;;;;;10.43;8.03;;;-7.50;99.90;;;;;;5039637;28;20422;-87
2021/12/21 15:17:25;;;;;;;8.00;5.50;;;-7.30;99.90;;;;;;5034783;28;20702;-88
2021/12/21 15:19:51;;;;;;;10.87;7.83;;;-7.50;99.90;;;;;;5036063;28;20169;-87
2021/12/21 15:22:18;;;;;;;7.20;6.30;;;-7.60;99.90;;;;;;5044667;28;20286;-86
2021/12/21 15:24:45;;;;;;;11.80;6.47;;;-6.30;99.90;;;;;;5056722;28;20401;-81
2021/12/21 15:27:11;;;;;;;12.57;6.47;;;-6.30;99.90;;;;;;5056561;28;20750;-84
2021/12/21 15:29:38;;;;;;;8.00;6.53;;;-7.80;99.90;;;;;;5057097;28;20451;-84
2021/12/21 15:32:09;;;;;;;9.50;6.40;;;-8.00;99.90;;;;;;5056840;28;20847;-81
2021/12/21 15:34:35;;;;;;;12.57;7.10;;;-7.80;99.90;;;;;;5057485;28;20718;-86
2021/12/21 15:37:01;;;;;;;9.87;6.27;;;-6.20;99.90;;;;;;5055895;28;20428;-86
2021/12/21 15:39:27;;;;;;;8.70;6.60;;;-7.90;99.90;;;;;;5057274;28;20515;-83
2021/12/21 15:41:55;;;;;;;7.17;5.37;;;-7.70;99.90;;;;;;5056476;28;20194;-77
2021/12/21 15:44:28;;;;;;;11.83;7.03;;;-7.50;99.90;;;;;;5055359;28;20168;-77
2021/12/21 15:46:57;;;;;;;9.07;7.30;;;-7.50;99.90;;;;;;5056168;28;20435;-82
2021/12/21 15:49:24;;;;;;;13.87;6.67;;;-6.80;99.90;;;;;;5055811;28;20445;-82
2021/12/21 15:51:49;;;;;;;10.07;7.37;;;-7.70;99.90;;;;;;5056636;28;20816;-80
2021/12/21 15:54:16;;;;;;;10.27;7.10;;;-7.50;99.90;;;;;;5056732;28;20393;-77
2021/12/21 15:56:42;;;;;;;12.73;8.00;;;-6.00;99.90;;;;;;5056379;28;20167;-74
2021/12/21 15:59:08;;;;;;;11.93;7.73;;;-5.40;99.90;;;;;;5056129;28;20428;-76
2021/12/21 16:01:35;;;;;;;9.40;6.43;;;-7.20;99.90;;;;;;5055383;28;20443;-74
2021/12/21 16:04:03;;;;;;;11.40;6.27;;;-7.70;99.90;;;;;;5056232;28;20402;-74
2021/12/21 16:06:29;;;;;;;9.20;7.67;;;-8.20;99.90;;;;;;5055344;28;20414;-81
2021/12/21 16:08:56;;;;;;;7.70;5.87;;;-7.20;99.90;;;;;;5055789;28;20670;-74
2021/12/21 16:11:22;;;;;;;17.30;7.77;;;-7.80;99.90;;;;;;5056211;28;20395;-79
2021/12/21 16:13:48;;;;;;;13.13;8.10;;;-5.90;99.90;;;;;;5055464;28;20490;-74
2021/12/21 16:16:13;;;;;;;14.40;7.17;;;-8.00;99.90;;;;;;5056310;28;20927;-76
2021/12/21 16:18:39;;;;;;;17.70;9.23;;;-8.50;99.90;;;;;;5055984;28;20658;-76
2021/12/21 16:21:05;;;;;;;22.73;8.00;;;-8.40;99.90;;;;;;5056258;28;20170;-75
2021/12/21 16:23:31;;;;;;;10.47;7.27;;;-8.00;99.90;;;;;;5075044;28;20178;-77
2021/12/21 16:25:58;;;;;;;14.07;7.20;;;-8.50;99.90;;;;;;5076385;28;20488;-75
2021/12/21 16:28:24;;;;;;;14.73;8.80;;;-8.90;99.90;;;;;;5075478;28;20422;-79
2021/12/21 16:30:53;;;;;;;10.97;7.00;;;-8.70;99.90;;;;;;5075645;28;20389;-74
2021/12/21 16:33:21;;;;;;;19.43;8.27;;;-9.00;99.90;;;;;;5074007;28;20510;-73
2021/12/21 16:35:47;;;;;;;13.67;9.00;;;-8.70;99.90;;;;;;5076116;28;20397;-82
2021/12/21 16:38:15;;;;;;;16.43;8.33;;;-6.90;99.90;;;;;;5075190;28;20780;-73
2021/12/21 16:40:43;;;;;;;12.40;8.03;;;-7.00;99.90;;;;;;5073772;28;20852;-74
2021/12/21 16:43:10;;;;;;;17.30;9.60;;;-8.70;99.90;;;;;;5074292;28;20413;-79
2021/12/21 16:45:37;;;;;;;13.90;9.13;;;-8.50;99.90;;;;;;5074674;28;20409;-73
2021/12/21 16:48:05;;;;;;;17.57;9.77;;;-7.90;99.90;;;;;;5077529;28;20411;-81
2021/12/21 16:50:32;;;;;;;9.97;8.67;;;-8.80;99.90;;;;;;5083094;28;20472;-79
2021/12/21 16:52:58;;;;;;;13.30;7.50;;;-8.60;99.90;;;;;;5079481;28;20406;-79